createdAt,value
2017-11-24T00:00:37.274Z,0
2017-11-24T00:01:38.860Z,0
2017-11-24T00:02:39.462Z,0
2017-11-24T00:03:40.062Z,0
2017-11-24T00:04:40.670Z,0
2017-11-24T00:05:41.268Z,0
2017-11-24T00:06:41.860Z,0
2017-11-24T00:07:42.484Z,0
2017-11-24T00:08:43.067Z,0
2017-11-24T00:09:43.675Z,0
2017-11-24T00:10:44.274Z,0
2017-11-24T00:11:44.876Z,0
2017-11-24T00:12:45.467Z,0
2017-11-24T00:13:46.061Z,0
2017-11-24T00:14:46.671Z,0
2017-11-24T00:15:47.277Z,0
2017-11-24T00:16:47.906Z,0
2017-11-24T00:17:48.514Z,0
2017-11-24T00:18:49.100Z,0
2017-11-24T00:19:49.705Z,0
2017-11-24T00:20:50.309Z,0
2017-11-24T00:21:50.903Z,0
2017-11-24T00:22:51.550Z,0
2017-11-24T00:23:52.140Z,0
2017-11-24T00:24:52.742Z,0
2017-11-24T00:25:53.354Z,0
2017-11-24T00:26:53.970Z,0
2017-11-24T00:27:54.578Z,0
2017-11-24T00:28:55.176Z,0
2017-11-24T00:29:55.793Z,0
2017-11-24T00:30:56.399Z,0
2017-11-24T00:31:57.000Z,0
2017-11-24T00:32:57.604Z,0
2017-11-24T00:33:58.225Z,0
2017-11-24T00:34:58.834Z,0
2017-11-24T00:35:59.473Z,0
2017-11-24T00:37:00.044Z,0
2017-11-24T00:38:00.661Z,0
2017-11-24T00:39:01.253Z,0
2017-11-24T00:40:01.860Z,0
2017-11-24T00:41:02.453Z,0
2017-11-24T00:42:03.065Z,0
2017-11-24T00:43:03.673Z,0
2017-11-24T00:44:04.278Z,0
2017-11-24T00:45:04.875Z,0
2017-11-24T00:46:05.497Z,0
2017-11-24T00:47:06.074Z,0
2017-11-24T00:48:06.692Z,0
2017-11-24T00:49:07.283Z,0
2017-11-24T00:50:07.878Z,0
2017-11-24T00:51:08.490Z,0
2017-11-24T00:52:09.085Z,0
2017-11-24T00:53:09.695Z,0
2017-11-24T00:54:10.300Z,0
2017-11-24T00:55:10.897Z,0
2017-11-24T00:56:11.500Z,0
2017-11-24T00:57:12.111Z,0
2017-11-24T00:58:12.707Z,0
2017-11-24T00:59:13.322Z,0
2017-11-24T01:00:13.920Z,0
2017-11-24T01:01:14.546Z,0
2017-11-24T01:02:15.150Z,0
2017-11-24T01:03:15.772Z,0
2017-11-24T01:04:16.383Z,0
2017-11-24T01:05:16.994Z,0
2017-11-24T01:06:17.583Z,0
2017-11-24T01:07:18.179Z,0
2017-11-24T01:08:18.792Z,0
2017-11-24T01:09:19.383Z,0
2017-11-24T01:10:19.988Z,0
2017-11-24T01:11:20.585Z,0
2017-11-24T01:12:21.184Z,0
2017-11-24T01:13:21.782Z,0
2017-11-24T01:14:22.380Z,0
2017-11-24T01:15:22.979Z,0
2017-11-24T01:16:23.573Z,0
2017-11-24T01:17:24.173Z,0
2017-11-24T01:18:24.766Z,0
2017-11-24T01:19:25.366Z,0
2017-11-24T01:20:25.964Z,0
2017-11-24T01:21:26.563Z,0
2017-11-24T01:22:27.182Z,0
2017-11-24T01:23:27.799Z,0
2017-11-24T01:24:28.409Z,0
2017-11-24T01:25:29.025Z,0
2017-11-24T01:26:29.624Z,0
2017-11-24T01:27:30.239Z,0
2017-11-24T01:28:30.857Z,0
2017-11-24T01:29:31.449Z,0
2017-11-24T01:30:32.051Z,0
2017-11-24T01:31:32.652Z,0
2017-11-24T01:32:33.259Z,0
2017-11-24T01:33:33.873Z,0
2017-11-24T01:34:34.485Z,0
2017-11-24T01:35:35.100Z,0
2017-11-24T01:36:35.706Z,0
2017-11-24T01:37:36.324Z,0
2017-11-24T01:38:36.934Z,0
2017-11-24T01:39:37.543Z,0
2017-11-24T01:40:38.150Z,0
2017-11-24T01:41:38.755Z,0
2017-11-24T01:42:39.359Z,0
2017-11-24T01:43:39.970Z,0
2017-11-24T01:44:40.562Z,0
2017-11-24T01:45:41.167Z,0
2017-11-24T01:46:41.783Z,0
2017-11-24T01:47:42.389Z,0
2017-11-24T01:48:42.995Z,0
2017-11-24T01:49:43.592Z,0
2017-11-24T01:50:44.195Z,0
2017-11-24T01:51:44.786Z,0
2017-11-24T01:52:45.398Z,0
2017-11-24T01:53:45.997Z,0
2017-11-24T01:54:46.594Z,0
2017-11-24T01:55:47.185Z,0
2017-11-24T01:56:47.795Z,0
2017-11-24T01:57:48.409Z,0
2017-11-24T01:58:49.022Z,0
2017-11-24T01:59:49.635Z,0
2017-11-24T02:00:50.249Z,0
2017-11-24T02:01:50.854Z,0
2017-11-24T02:02:51.455Z,0
2017-11-24T02:03:52.058Z,0
2017-11-24T02:04:52.665Z,0
2017-11-24T02:05:53.259Z,0
2017-11-24T02:06:53.853Z,0
2017-11-24T02:07:54.465Z,0
2017-11-24T02:08:55.078Z,0
2017-11-24T02:09:55.694Z,0
2017-11-24T02:10:56.283Z,0
2017-11-24T02:11:56.883Z,0
2017-11-24T02:12:57.482Z,0
2017-11-24T02:13:58.078Z,0
2017-11-24T02:14:58.682Z,0
2017-11-24T02:15:59.291Z,0
2017-11-24T02:16:59.899Z,0
2017-11-24T02:18:00.492Z,0
2017-11-24T02:19:01.103Z,0
2017-11-24T02:20:01.716Z,0
2017-11-24T02:21:02.332Z,0
2017-11-24T02:22:02.944Z,0
2017-11-24T02:23:03.557Z,0
2017-11-24T02:24:04.162Z,0
2017-11-24T02:25:04.762Z,0
2017-11-24T02:26:05.354Z,0
2017-11-24T02:27:05.953Z,0
2017-11-24T02:28:06.563Z,0
2017-11-24T02:29:07.161Z,0
2017-11-24T02:30:07.758Z,0
2017-11-24T02:31:08.353Z,0
2017-11-24T02:32:08.951Z,0
2017-11-24T02:33:09.537Z,0
2017-11-24T02:34:10.141Z,0
2017-11-24T02:35:10.749Z,0
2017-11-24T02:36:11.343Z,0
2017-11-24T02:37:11.946Z,0
2017-11-24T02:38:12.572Z,0
2017-11-24T02:39:13.169Z,0
2017-11-24T02:40:13.766Z,0
2017-11-24T02:41:14.378Z,0
2017-11-24T02:42:14.983Z,0
2017-11-24T02:43:15.584Z,0
2017-11-24T02:44:16.199Z,0
2017-11-24T02:45:16.807Z,0
2017-11-24T02:46:17.411Z,0
2017-11-24T02:47:18.026Z,0
2017-11-24T02:48:18.616Z,0
2017-11-24T02:49:19.217Z,0
2017-11-24T02:50:19.824Z,0
2017-11-24T02:51:20.425Z,0
2017-11-24T02:52:21.037Z,0
2017-11-24T02:53:21.636Z,0
2017-11-24T02:54:22.249Z,0
2017-11-24T02:55:22.847Z,0
2017-11-24T02:56:23.458Z,0
2017-11-24T02:57:24.073Z,0
2017-11-24T02:58:24.680Z,0
2017-11-24T02:59:25.288Z,0
2017-11-24T03:00:25.882Z,0
2017-11-24T03:01:26.478Z,0
2017-11-24T03:02:27.097Z,0
2017-11-24T03:03:27.681Z,0
2017-11-24T03:04:28.283Z,0
2017-11-24T03:05:28.894Z,0
2017-11-24T03:06:29.497Z,0
2017-11-24T03:07:30.096Z,0
2017-11-24T03:08:30.698Z,0
2017-11-24T03:09:31.306Z,0
2017-11-24T03:10:31.923Z,0
2017-11-24T03:11:32.527Z,0
2017-11-24T03:12:33.128Z,0
2017-11-24T03:13:33.724Z,0
2017-11-24T03:14:34.338Z,0
2017-11-24T03:15:34.935Z,0
2017-11-24T03:16:35.552Z,0
2017-11-24T03:17:36.146Z,0
2017-11-24T03:18:36.756Z,0
2017-11-24T03:19:37.359Z,0
2017-11-24T03:20:37.965Z,0
2017-11-24T03:21:38.571Z,0
2017-11-24T03:22:39.179Z,0
2017-11-24T03:23:39.773Z,0
2017-11-24T03:24:40.370Z,0
2017-11-24T03:25:40.965Z,0
2017-11-24T03:26:41.556Z,0
2017-11-24T03:27:42.164Z,0
2017-11-24T03:28:42.780Z,0
2017-11-24T03:29:43.388Z,0
2017-11-24T03:30:44.000Z,0
2017-11-24T03:31:44.629Z,0
2017-11-24T03:32:45.209Z,0
2017-11-24T03:33:45.822Z,0
2017-11-24T03:34:46.436Z,0
2017-11-24T03:35:47.029Z,0
2017-11-24T03:36:47.622Z,0
2017-11-24T03:37:48.218Z,0
2017-11-24T03:38:48.824Z,0
2017-11-24T03:39:49.434Z,0
2017-11-24T03:40:50.070Z,0
2017-11-24T03:41:50.650Z,0
2017-11-24T03:42:51.267Z,0
2017-11-24T03:43:51.876Z,0
2017-11-24T03:44:52.473Z,0
2017-11-24T03:45:53.079Z,0
2017-11-24T03:46:53.670Z,0
2017-11-24T03:47:54.271Z,0
2017-11-24T03:48:54.880Z,0
2017-11-24T03:49:55.477Z,0
2017-11-24T03:50:56.063Z,0
2017-11-24T03:51:56.657Z,0
2017-11-24T03:52:57.268Z,0
2017-11-24T03:53:57.875Z,0
2017-11-24T03:54:58.492Z,0
2017-11-24T03:55:59.101Z,0
2017-11-24T03:56:59.695Z,0
2017-11-24T03:58:00.303Z,0
2017-11-24T03:59:00.879Z,0
2017-11-24T04:00:01.491Z,0
2017-11-24T04:01:02.092Z,0
2017-11-24T04:02:02.692Z,0
2017-11-24T04:03:03.273Z,0
2017-11-24T04:04:03.867Z,0
2017-11-24T04:05:04.486Z,0
2017-11-24T04:06:05.069Z,0
2017-11-24T04:07:05.677Z,0
2017-11-24T04:08:06.287Z,0
2017-11-24T04:09:06.888Z,0
2017-11-24T04:10:07.488Z,0
2017-11-24T04:11:08.105Z,0
2017-11-24T04:12:08.693Z,0
2017-11-24T04:13:09.289Z,0
2017-11-24T04:14:09.880Z,0
2017-11-24T04:15:10.483Z,0
2017-11-24T04:16:11.093Z,0
2017-11-24T04:17:11.686Z,0
2017-11-24T04:18:12.307Z,0
2017-11-24T04:19:12.896Z,0
2017-11-24T04:20:13.504Z,0
2017-11-24T04:21:14.119Z,0
2017-11-24T04:22:14.715Z,0
2017-11-24T04:23:15.329Z,0
2017-11-24T04:24:15.935Z,0
2017-11-24T04:25:16.535Z,0
2017-11-24T04:26:17.142Z,0
2017-11-24T04:27:17.742Z,0
2017-11-24T04:28:18.337Z,0
2017-11-24T04:29:18.940Z,0
2017-11-24T04:30:19.550Z,0
2017-11-24T04:31:20.142Z,0
2017-11-24T04:32:20.738Z,0
2017-11-24T04:33:21.348Z,0
2017-11-24T04:34:21.949Z,0
2017-11-24T04:35:22.554Z,0
2017-11-24T04:36:23.151Z,0
2017-11-24T04:37:23.767Z,0
2017-11-24T04:38:24.382Z,0
2017-11-24T04:39:24.988Z,0
2017-11-24T04:40:25.577Z,0
2017-11-24T04:41:26.174Z,0
2017-11-24T04:42:26.790Z,0
2017-11-24T04:43:27.386Z,0
2017-11-24T04:44:27.977Z,0
2017-11-24T04:45:28.575Z,0
2017-11-24T04:46:29.182Z,0
2017-11-24T04:47:29.789Z,0
2017-11-24T04:48:30.384Z,0
2017-11-24T04:49:30.979Z,0
2017-11-24T04:50:31.577Z,0
2017-11-24T04:51:32.171Z,0
2017-11-24T04:52:32.763Z,0
2017-11-24T04:53:33.360Z,0
2017-11-24T04:54:33.968Z,0
2017-11-24T04:55:34.565Z,0
2017-11-24T04:56:35.173Z,0
2017-11-24T04:57:35.785Z,0
2017-11-24T04:58:36.380Z,0
2017-11-24T04:59:36.967Z,0
2017-11-24T05:00:37.562Z,0
2017-11-24T05:01:38.166Z,0
2017-11-24T05:02:38.767Z,0
2017-11-24T05:03:39.374Z,0
2017-11-24T05:04:39.967Z,0
2017-11-24T05:05:40.568Z,0
2017-11-24T05:06:41.179Z,0
2017-11-24T05:07:41.787Z,0
2017-11-24T05:08:42.386Z,0
2017-11-24T05:09:42.983Z,0
2017-11-24T05:10:43.574Z,0
2017-11-24T05:11:44.173Z,0
2017-11-24T05:12:44.776Z,0
2017-11-24T05:13:45.374Z,0
2017-11-24T05:14:45.978Z,0
2017-11-24T05:15:46.588Z,0
2017-11-24T05:16:47.202Z,0
2017-11-24T05:17:47.799Z,0
2017-11-24T05:18:48.409Z,0
2017-11-24T05:19:49.001Z,0
2017-11-24T05:20:49.608Z,0
2017-11-24T05:21:50.203Z,0
2017-11-24T05:22:50.811Z,0
2017-11-24T05:23:51.420Z,0
2017-11-24T05:24:52.022Z,0
2017-11-24T05:25:52.626Z,0
2017-11-24T05:26:53.239Z,0
2017-11-24T05:27:53.841Z,0
2017-11-24T05:28:54.436Z,0
2017-11-24T05:29:55.033Z,0
2017-11-24T05:30:55.642Z,0
2017-11-24T05:31:56.245Z,0
2017-11-24T05:32:56.860Z,0
2017-11-24T05:33:57.472Z,0
2017-11-24T05:34:58.088Z,0
2017-11-24T05:35:58.680Z,0
2017-11-24T05:36:59.298Z,0
2017-11-24T05:37:59.904Z,0
2017-11-24T05:39:00.502Z,0
2017-11-24T05:40:01.109Z,0
2017-11-24T05:41:01.717Z,0
2017-11-24T05:42:02.314Z,0
2017-11-24T05:43:02.899Z,0
2017-11-24T05:44:03.506Z,0
2017-11-24T05:45:04.116Z,0
2017-11-24T05:46:04.712Z,0
2017-11-24T05:47:05.323Z,0
2017-11-24T05:48:05.934Z,0
2017-11-24T05:49:06.536Z,0
2017-11-24T05:50:07.127Z,0
2017-11-24T05:51:07.733Z,0
2017-11-24T05:52:08.341Z,0
2017-11-24T05:53:08.938Z,0
2017-11-24T05:54:09.544Z,0
2017-11-24T05:55:10.130Z,0
2017-11-24T05:56:10.735Z,0
2017-11-24T05:57:11.333Z,0
2017-11-24T05:58:11.912Z,0
2017-11-24T05:59:12.520Z,0
2017-11-24T06:00:13.130Z,0
2017-11-24T06:01:13.721Z,0
2017-11-24T06:02:14.320Z,0
2017-11-24T06:03:14.925Z,0
2017-11-24T06:04:15.533Z,0
2017-11-24T06:05:16.131Z,0
2017-11-24T06:06:16.744Z,0
2017-11-24T06:07:17.347Z,0
2017-11-24T06:08:17.946Z,0
2017-11-24T06:09:18.543Z,0
2017-11-24T06:10:19.144Z,0
2017-11-24T06:11:19.747Z,0
2017-11-24T06:12:20.348Z,0
2017-11-24T06:13:20.948Z,0
2017-11-24T06:14:21.560Z,0
2017-11-24T06:15:22.165Z,0
2017-11-24T06:16:22.765Z,0
2017-11-24T06:17:23.368Z,0
2017-11-24T06:18:23.970Z,0
2017-11-24T06:19:24.556Z,0
2017-11-24T06:20:25.154Z,0
2017-11-24T06:21:25.749Z,0
2017-11-24T06:22:26.351Z,0
2017-11-24T06:23:26.942Z,0
2017-11-24T06:24:27.551Z,0
2017-11-24T06:25:28.157Z,0
2017-11-24T06:26:28.765Z,0
2017-11-24T06:27:29.366Z,0
2017-11-24T06:28:29.965Z,0
2017-11-24T06:29:30.567Z,0
2017-11-24T06:30:31.164Z,0
2017-11-24T06:31:31.769Z,0
2017-11-24T06:32:32.387Z,4
2017-11-24T06:33:33.048Z,4
2017-11-24T06:34:33.614Z,4
2017-11-24T06:40:13.604Z,0
2017-11-24T06:41:14.216Z,4
2017-11-24T06:42:14.829Z,0
2017-11-24T06:43:15.446Z,4
2017-11-24T06:44:16.053Z,4
2017-11-24T06:45:16.658Z,4
2017-11-24T06:46:17.279Z,4
2017-11-24T06:47:17.884Z,8
2017-11-24T06:48:18.483Z,8
2017-11-24T06:49:19.072Z,8
2017-11-24T06:50:19.669Z,12
2017-11-24T06:51:20.271Z,12
2017-11-24T06:52:20.877Z,12
2017-11-24T06:53:21.470Z,8
2017-11-24T06:54:22.072Z,8
2017-11-24T06:55:22.678Z,12
2017-11-24T06:56:23.292Z,16
2017-11-24T06:57:23.902Z,16
2017-11-24T06:58:24.499Z,16
2017-11-24T06:59:25.117Z,16
2017-11-24T07:00:25.729Z,28
2017-11-24T07:01:26.331Z,32
2017-11-24T07:02:26.931Z,40
2017-11-24T07:03:27.538Z,44
2017-11-24T07:04:28.140Z,48
2017-11-24T07:05:28.736Z,60
2017-11-24T07:06:29.329Z,64
2017-11-24T07:07:29.926Z,68
2017-11-24T07:08:30.521Z,68
2017-11-24T07:09:31.128Z,68
2017-11-24T07:10:31.727Z,68
2017-11-24T07:11:32.343Z,64
2017-11-24T07:12:32.944Z,72
2017-11-24T07:13:33.559Z,80
2017-11-24T07:14:34.146Z,92
2017-11-24T07:15:34.753Z,104
2017-11-24T07:16:35.356Z,136
2017-11-24T07:17:35.949Z,160
2017-11-24T07:18:36.571Z,164
2017-11-24T07:19:37.176Z,160
2017-11-24T07:20:37.762Z,156
2017-11-24T07:21:38.359Z,152
2017-11-24T07:22:38.958Z,148
2017-11-24T07:23:39.561Z,156
2017-11-24T07:24:40.159Z,168
2017-11-24T07:25:40.760Z,196
2017-11-24T07:26:41.370Z,248
2017-11-24T07:27:42.000Z,292
2017-11-24T07:28:42.586Z,324
2017-11-24T07:29:43.198Z,356
2017-11-24T07:30:43.796Z,384
2017-11-24T07:31:44.397Z,404
2017-11-24T07:32:45.001Z,436
2017-11-24T07:33:45.617Z,456
2017-11-24T07:34:46.209Z,456
2017-11-24T07:35:46.824Z,484
2017-11-24T07:36:47.434Z,540
2017-11-24T07:37:48.047Z,588
2017-11-24T07:38:48.661Z,660
2017-11-24T07:39:49.281Z,736
2017-11-24T07:40:49.879Z,760
2017-11-24T07:41:50.476Z,772
2017-11-24T07:42:51.087Z,808
2017-11-24T07:43:51.692Z,804
2017-11-24T07:44:52.294Z,732
2017-11-24T07:45:52.889Z,708
2017-11-24T07:46:53.495Z,716
2017-11-24T07:47:54.091Z,740
2017-11-24T07:48:54.688Z,752
2017-11-24T07:49:55.298Z,724
2017-11-24T07:50:55.914Z,696
2017-11-24T07:51:56.529Z,640
2017-11-24T07:52:57.149Z,640
2017-11-24T07:53:57.747Z,712
2017-11-24T07:54:58.338Z,836
2017-11-24T07:55:59.000Z,1060
2017-11-24T07:56:59.600Z,1356
2017-11-24T07:58:00.202Z,1460
2017-11-24T07:59:00.808Z,1296
2017-11-24T08:00:01.405Z,1180
2017-11-24T08:01:02.002Z,1188
2017-11-24T08:02:02.598Z,1220
2017-11-24T08:03:03.206Z,1196
2017-11-24T08:04:03.801Z,1164
2017-11-24T08:05:04.405Z,1200
2017-11-24T08:06:05.020Z,1280
2017-11-24T08:07:05.621Z,1320
2017-11-24T08:08:06.223Z,1332
2017-11-24T08:09:06.832Z,1348
2017-11-24T08:10:07.432Z,1288
2017-11-24T08:11:08.030Z,1140
2017-11-24T08:12:08.641Z,1100
2017-11-24T08:13:09.239Z,1220
2017-11-24T08:14:09.851Z,1404
2017-11-24T08:15:10.446Z,1588
2017-11-24T08:16:11.061Z,1804
2017-11-24T08:17:11.689Z,2064
2017-11-24T08:18:12.319Z,2280
2017-11-24T08:19:12.906Z,2588
2017-11-24T08:20:13.514Z,2740
2017-11-24T08:21:14.125Z,2556
2017-11-24T08:22:14.739Z,2268
2017-11-24T08:23:15.364Z,2276
2017-11-24T08:24:15.959Z,2768
2017-11-24T08:25:16.557Z,3152
2017-11-24T08:26:17.165Z,3332
2017-11-24T08:27:17.767Z,3212
2017-11-24T08:28:18.384Z,2872
2017-11-24T08:29:18.995Z,2624
2017-11-24T08:30:19.601Z,2380
2017-11-24T08:31:20.201Z,2348
2017-11-24T08:32:20.822Z,2408
2017-11-24T08:33:21.424Z,2572
2017-11-24T08:34:22.016Z,2916
2017-11-24T08:35:22.623Z,3232
2017-11-24T08:36:23.235Z,3492
2017-11-24T08:37:23.837Z,3796
2017-11-24T08:38:24.442Z,3892
2017-11-24T08:39:25.059Z,3840
2017-11-24T08:40:25.658Z,3780
2017-11-24T08:41:26.260Z,3876
2017-11-24T08:42:26.866Z,4152
2017-11-24T08:43:27.478Z,4432
2017-11-24T08:44:28.077Z,4288
2017-11-24T08:45:28.676Z,4112
2017-11-24T08:46:29.280Z,3652
2017-11-24T08:47:29.877Z,3044
2017-11-24T08:48:30.488Z,2708
2017-11-24T08:49:31.101Z,2692
2017-11-24T08:50:31.700Z,2840
2017-11-24T08:51:32.303Z,3092
2017-11-24T08:52:32.911Z,3328
2017-11-24T08:53:33.504Z,3596
2017-11-24T08:54:34.114Z,3944
2017-11-24T08:55:34.719Z,4256
2017-11-24T08:56:35.333Z,4552
2017-11-24T08:57:35.948Z,4556
2017-11-24T08:58:36.562Z,4680
2017-11-24T08:59:37.175Z,4976
2017-11-24T09:00:37.790Z,5072
2017-11-24T09:01:38.397Z,4748
2017-11-24T09:02:39.016Z,4664
2017-11-24T09:03:39.611Z,5192
2017-11-24T09:04:40.208Z,5832
2017-11-24T09:05:40.815Z,6260
2017-11-24T09:06:41.409Z,6464
2017-11-24T09:07:42.011Z,6408
2017-11-24T09:08:42.625Z,6348
2017-11-24T09:09:43.244Z,6228
2017-11-24T09:10:43.864Z,6420
2017-11-24T09:11:44.476Z,7112
2017-11-24T09:12:45.090Z,7320
2017-11-24T09:13:45.716Z,6776
2017-11-24T09:14:46.342Z,6132
2017-11-24T09:15:46.968Z,5812
2017-11-24T09:16:47.581Z,5732
2017-11-24T09:17:48.199Z,6164
2017-11-24T09:18:48.807Z,6768
2017-11-24T09:19:49.441Z,6752
2017-11-24T09:22:36.324Z,5536
2017-11-24T09:23:36.932Z,5084
2017-11-24T09:24:37.561Z,4800
2017-11-24T09:25:38.183Z,5184
2017-11-24T09:26:38.788Z,5252
2017-11-24T09:27:39.394Z,4832
2017-11-24T09:28:40.034Z,4968
2017-11-24T09:29:40.659Z,5280
2017-11-24T09:30:41.290Z,6160
2017-11-24T09:31:41.910Z,8072
2017-11-24T09:32:42.503Z,8692
2017-11-24T09:33:43.122Z,7736
2017-11-24T09:34:43.729Z,7752
2017-11-24T09:35:44.334Z,6536
2017-11-24T09:36:44.946Z,5828
2017-11-24T09:37:45.571Z,4820
2017-11-24T09:38:46.404Z,3832
2017-11-24T09:39:47.017Z,3112
2017-11-24T09:40:47.610Z,2312
2017-11-24T09:41:48.219Z,1964
2017-11-24T09:42:48.823Z,1716
2017-11-24T09:43:49.430Z,1600
2017-11-24T09:44:50.046Z,1660
2017-11-24T09:45:50.887Z,2356
2017-11-24T09:46:51.494Z,3616
2017-11-24T09:47:52.107Z,4568
2017-11-24T09:48:52.728Z,4732
2017-11-24T09:49:53.339Z,4764
2017-11-24T09:50:53.950Z,4472
2017-11-24T09:51:54.565Z,4724
2017-11-24T09:52:55.197Z,4788
2017-11-24T09:53:55.818Z,4816
2017-11-24T09:54:56.421Z,5428
2017-11-24T09:55:57.024Z,6096
2017-11-24T09:56:57.622Z,5968
2017-11-24T09:57:58.242Z,5496
2017-11-24T09:58:58.845Z,5176
2017-11-24T09:59:59.462Z,6512
2017-11-24T10:01:00.084Z,6188
2017-11-24T10:02:00.694Z,5152
2017-11-24T10:03:01.313Z,4748
2017-11-24T10:04:01.945Z,4388
2017-11-24T10:05:02.564Z,5864
2017-11-24T10:06:03.188Z,6892
2017-11-24T10:07:03.805Z,7232
2017-11-24T10:08:04.419Z,7208
2017-11-24T10:09:05.040Z,7412
2017-11-24T10:10:05.641Z,8272
2017-11-24T10:11:06.265Z,8064
2017-11-24T10:12:06.860Z,7204
2017-11-24T10:13:07.492Z,6508
2017-11-24T10:14:08.108Z,5848
2017-11-24T10:15:08.724Z,7208
2017-11-24T10:16:09.346Z,9552
2017-11-24T10:17:09.971Z,10500
2017-11-24T10:18:10.611Z,11772
2017-11-24T10:19:11.228Z,13816
2017-11-24T10:20:11.841Z,14612
2017-11-24T10:21:12.439Z,15556
2017-11-24T10:22:13.050Z,16928
2017-11-24T10:23:13.660Z,17920
2017-11-24T10:24:14.268Z,15020
2017-11-24T10:25:14.870Z,13280
2017-11-24T10:26:15.472Z,12424
2017-11-24T10:27:16.088Z,12172
2017-11-24T10:28:16.716Z,14668
2017-11-24T10:29:17.332Z,15688
2017-11-24T10:30:17.939Z,16564
2017-11-24T10:31:18.560Z,17004
2017-11-24T10:32:19.168Z,15736
2017-11-24T10:33:19.777Z,14808
2017-11-24T10:34:20.386Z,15732
2017-11-24T10:35:21.004Z,14916
2017-11-24T10:36:21.610Z,12724
2017-11-24T10:37:22.230Z,11012
2017-11-24T10:38:22.833Z,9644
2017-11-24T10:39:23.455Z,9212
2017-11-24T10:40:24.060Z,8840
2017-11-24T10:41:24.665Z,8188
2017-11-24T10:42:25.289Z,8220
2017-11-24T10:43:25.898Z,9000
2017-11-24T10:44:26.507Z,7792
2017-11-24T10:45:27.122Z,6444
2017-11-24T10:46:27.743Z,6628
2017-11-24T10:47:28.351Z,7816
2017-11-24T10:48:28.959Z,8036
2017-11-24T10:49:29.575Z,6680
2017-11-24T10:50:30.194Z,5292
2017-11-24T10:51:30.816Z,5088
2017-11-24T10:52:31.420Z,5532
2017-11-24T10:53:32.042Z,5968
2017-11-24T10:54:32.664Z,6200
2017-11-24T10:55:33.287Z,6632
2017-11-24T10:56:33.890Z,5804
2017-11-24T10:57:34.514Z,4240
2017-11-24T10:58:35.125Z,3576
2017-11-24T10:59:35.745Z,2948
2017-11-24T11:00:36.344Z,2484
2017-11-24T11:01:36.941Z,2452
2017-11-24T11:02:37.556Z,2892
2017-11-24T11:03:38.179Z,3564
2017-11-24T11:04:38.805Z,3736
2017-11-24T11:05:39.644Z,3800
2017-11-24T11:06:40.269Z,3804
2017-11-24T11:07:40.888Z,3828
2017-11-24T11:08:41.506Z,4536
2017-11-24T11:09:42.111Z,5012
2017-11-24T11:10:42.726Z,5052
2017-11-24T11:11:43.350Z,4780
2017-11-24T11:12:43.975Z,4684
2017-11-24T11:13:44.599Z,4580
2017-11-24T11:14:45.225Z,5060
2017-11-24T11:15:45.846Z,5936
2017-11-24T11:16:46.464Z,6912
2017-11-24T11:17:47.087Z,7032
2017-11-24T11:18:47.693Z,6532
2017-11-24T11:19:48.321Z,6968
2017-11-24T11:20:48.945Z,8116
2017-11-24T11:21:49.559Z,8984
2017-11-24T11:22:50.173Z,9308
2017-11-24T11:23:50.798Z,9388
2017-11-24T11:24:51.423Z,9952
2017-11-24T11:25:52.049Z,11452
2017-11-24T11:26:52.657Z,11404
2017-11-24T11:27:53.287Z,11436
2017-11-24T11:28:53.918Z,12060
2017-11-24T11:29:54.533Z,12680
2017-11-24T11:30:55.152Z,11356
2017-11-24T11:31:55.768Z,11600
2017-11-24T11:32:56.377Z,11016
2017-11-24T11:33:56.984Z,9492
2017-11-24T11:34:57.579Z,7040
2017-11-24T11:35:58.204Z,6296
2017-11-24T11:36:58.797Z,6288
2017-11-24T11:37:59.424Z,6240
2017-11-24T11:39:00.059Z,5220
2017-11-24T11:40:00.668Z,4552
2017-11-24T11:41:01.286Z,4204
2017-11-24T11:42:01.898Z,4568
2017-11-24T11:43:02.520Z,5532
2017-11-24T11:44:03.124Z,5364
2017-11-24T11:45:03.734Z,4868
2017-11-24T11:46:04.357Z,4760
2017-11-24T11:47:04.993Z,5240
2017-11-24T11:48:05.590Z,6176
2017-11-24T11:49:06.200Z,5972
2017-11-24T11:50:06.814Z,5280
2017-11-24T11:51:07.436Z,4624
2017-11-24T11:52:08.031Z,3776
2017-11-24T11:53:08.636Z,3360
2017-11-24T11:54:09.277Z,3644
2017-11-24T11:55:09.885Z,3552
2017-11-24T11:56:10.500Z,4016
2017-11-24T11:57:11.123Z,5308
2017-11-24T11:58:11.733Z,5500
2017-11-24T11:59:12.356Z,5368
2017-11-24T12:00:12.971Z,4384
2017-11-24T12:01:13.586Z,3472
2017-11-24T12:02:14.224Z,2864
2017-11-24T12:03:14.847Z,2500
2017-11-24T12:04:15.457Z,2272
2017-11-24T12:05:16.058Z,2432
2017-11-24T12:06:16.678Z,2488
2017-11-24T12:07:17.296Z,3364
2017-11-24T12:08:17.908Z,3816
2017-11-24T12:09:18.522Z,4004
2017-11-24T12:10:19.137Z,3728
2017-11-24T12:11:19.757Z,3268
2017-11-24T12:12:20.358Z,3184
2017-11-24T12:13:20.971Z,3584
2017-11-24T12:14:21.577Z,4068
2017-11-24T12:15:22.187Z,3824
2017-11-24T12:16:22.791Z,3352
2017-11-24T12:17:23.399Z,3820
2017-11-24T12:18:24.019Z,3436
2017-11-24T12:19:24.636Z,3076
2017-11-24T12:20:25.252Z,3580
2017-11-24T12:21:25.852Z,3688
2017-11-24T12:22:26.471Z,3708
2017-11-24T12:23:27.077Z,4332
2017-11-24T12:24:27.682Z,3860
2017-11-24T12:25:28.303Z,3940
2017-11-24T12:26:28.928Z,4024
2017-11-24T12:27:29.551Z,4864
2017-11-24T12:28:30.152Z,5140
2017-11-24T12:29:30.773Z,4316
2017-11-24T12:30:31.603Z,4200
2017-11-24T12:31:32.436Z,3100
2017-11-24T12:32:33.074Z,2268
2017-11-24T12:33:33.670Z,2040
2017-11-24T12:34:34.299Z,2252
2017-11-24T12:35:34.927Z,2480
2017-11-24T12:36:35.542Z,3160
2017-11-24T12:37:36.174Z,3908
2017-11-24T12:38:36.799Z,4072
2017-11-24T12:39:37.429Z,4384
2017-11-24T12:40:38.056Z,4580
2017-11-24T12:41:38.683Z,3348
2017-11-24T12:42:39.300Z,3016
2017-11-24T12:43:39.917Z,3024
2017-11-24T12:44:40.536Z,3576
2017-11-24T12:45:41.153Z,4040
2017-11-24T12:46:41.753Z,4628
2017-11-24T12:47:42.373Z,4012
2017-11-24T12:48:42.996Z,2520
2017-11-24T12:49:43.616Z,2956
2017-11-24T12:50:44.225Z,3076
2017-11-24T12:51:44.824Z,3296
2017-11-24T12:52:45.425Z,3128
2017-11-24T12:53:46.033Z,2452
2017-11-24T12:54:46.649Z,2132
2017-11-24T12:55:47.260Z,2104
2017-11-24T12:56:47.873Z,2528
2017-11-24T12:57:48.481Z,2600
2017-11-24T12:58:49.089Z,2544
2017-11-24T12:59:49.694Z,3284
2017-11-24T13:00:50.298Z,4324
2017-11-24T13:01:50.907Z,4296
2017-11-24T13:02:51.515Z,3816
2017-11-24T13:03:52.105Z,3204
2017-11-24T13:04:52.726Z,3016
2017-11-24T13:05:53.336Z,2852
2017-11-24T13:06:53.946Z,3476
2017-11-24T13:07:54.565Z,4320
2017-11-24T13:08:55.182Z,5292
2017-11-24T13:09:55.802Z,6604
2017-11-24T13:10:56.398Z,8776
2017-11-24T13:11:57.209Z,10868
2017-11-24T13:12:57.833Z,11520
2017-11-24T13:13:58.451Z,11004
2017-11-24T13:14:59.112Z,10900
2017-11-24T13:15:59.707Z,11136
2017-11-24T13:17:00.319Z,11364
2017-11-24T13:18:00.928Z,11576
2017-11-24T13:19:01.546Z,11536
2017-11-24T13:20:02.149Z,11000
2017-11-24T13:21:02.774Z,10804
2017-11-24T13:22:03.386Z,10540
2017-11-24T13:23:03.994Z,9992
2017-11-24T13:24:04.604Z,9684
2017-11-24T13:25:05.215Z,9336
2017-11-24T13:26:05.845Z,9496
2017-11-24T13:27:06.475Z,10080
2017-11-24T13:28:07.092Z,10636
2017-11-24T13:29:07.708Z,11100
2017-11-24T13:30:08.328Z,11304
2017-11-24T13:31:08.952Z,10960
2017-11-24T13:32:09.549Z,10852
2017-11-24T13:33:10.165Z,10864
2017-11-24T13:34:10.785Z,10788
2017-11-24T13:35:11.414Z,10488
2017-11-24T13:36:12.019Z,9812
2017-11-24T13:37:12.637Z,9732
2017-11-24T13:38:13.243Z,9376
2017-11-24T13:39:13.860Z,8976
2017-11-24T13:40:14.690Z,8984
2017-11-24T13:41:15.303Z,8140
2017-11-24T13:42:15.904Z,7460
2017-11-24T13:43:16.509Z,7388
2017-11-24T13:44:17.124Z,6800
2017-11-24T13:45:17.807Z,5224
2017-11-24T13:46:18.483Z,4196
2017-11-24T13:47:19.140Z,3844
2017-11-24T13:48:19.837Z,3496
2017-11-24T13:49:20.478Z,3656
2017-11-24T13:50:21.151Z,4632
2017-11-24T13:51:21.799Z,5976
2017-11-24T13:52:22.665Z,6532
2017-11-24T13:53:23.293Z,6748
2017-11-24T13:54:23.906Z,6600
2017-11-24T13:55:24.515Z,6652
2017-11-24T13:56:25.139Z,7152
2017-11-24T13:57:25.756Z,7676
2017-11-24T13:58:26.383Z,7768
2017-11-24T13:59:27.021Z,7096
2017-11-24T14:00:27.646Z,6816
2017-11-24T14:01:28.281Z,6692
2017-11-24T14:02:28.879Z,6176
2017-11-24T14:03:29.504Z,6352
2017-11-24T14:04:30.120Z,6432
2017-11-24T14:05:30.735Z,6172
2017-11-24T14:06:31.372Z,5496
2017-11-24T14:07:32.006Z,5288
2017-11-24T14:08:32.639Z,4588
2017-11-24T14:09:33.275Z,4828
2017-11-24T14:10:33.886Z,5408
2017-11-24T14:11:34.488Z,6084
2017-11-24T14:12:35.108Z,6576
2017-11-24T14:13:35.720Z,5860
2017-11-24T14:14:36.340Z,6632
2017-11-24T14:15:36.951Z,6548